Jenks, OK

6:02 PM CDT on October 25, 2014 (GMT -0500)
KOKJENKS4 | Change Station
CLOSE
Current Station
Personal Weather Station
Location: Jenks, OK
Elevation: 620 ft
Nearby Weather Stations

Elev 620 ft 36.02 °N, 95.97 °W | Updated 6 seconds ago

Clear
Clear
85.1 °F
Feels Like 83 °F
N
0.0
Wind Variable Wind from SSW
Gusts 0.0 mph

Today
High -- | Low -- °F
--% Chance of Precip.
Yesterday
High -- | Low -- °F
Precip. -- in
7:39 AM 6:35 PM
Waxing Crescent, 5% visible
Pressure 30.01 in
Visibility 10.0 miles
Clouds Clear
Heat Index 83 °F
Dew Point 53 °F
Humidity 33%
Rainfall 0.00 in
Snow Depth Not available.
UV 0.0 out of 12
Pollen 4.30 out of 12
Ozone Moderate
Flu Activity Sporadic
METAR KRVS 252253Z AUTO 22003KT 10SM CLR 28/17 A3000 RMK AO2 SLP163 T02830172

More Conditions Fewer Conditions

Pressure 30.01 in
Visibility 10.0 miles
Clouds Clear
Heat Index 83 °F
Dew Point 53 °F
Humidity 33%
Rainfall 0.00 in
Snow Depth Not available.
UV 0.0 out of 12
Pollen 4.30 out of 12
Ozone Moderate
Flu Activity Sporadic
METAR KRVS 252253Z AUTO 22003KT 10SM CLR 28/17 A3000 RMK AO2 SLP163 T02830172

More Conditions Fewer Conditions

10-Day Weather Forecast

Almanac

Astronomy

Oct. 25, 2014 Rise Set
Actual Time 7:39 AM CDT 6:35 PM CDT
Civil Twilight 7:13 AM CDT 7:01 PM CDT
Nautical Twilight 6:43 AM CDT 7:31 PM CDT
Astronomical Twilight 6:13 AM CDT 8:01 PM CDT
Moon 9:17 AM CDT 8:02 PM CDT
Length of Visible Light 11h 48m
Length of Day
10h 55m
Tomorrow will be 2m 5s shorter.
Waxing Crescent, 5% of the Moon is Illuminated
Today
Waxing Crescent
Oct 30
First Quarter
Nov 6
Full
Nov 14
Last Quarter
Nov 22
New

Today's Extremes

State Highs State Lows

Community

WunderPhotos

Upload Photos

1,765,021 photos uploaded!

Nearby

Air Quality

  Air Quality AQ Index Pollutant
Yesterday Good
OZONE
Current Moderate
OZONE
Saturday Moderate
PM2.5
Saturday Good
OZONE
Sunday Moderate
PM2.5
Sunday Good
OZONE
Monday Moderate
PM2.5
Monday Good
OZONE
Tuesday Moderate
PM2.5
Tuesday Good
OZONE
Wednesday Good
OZONE
Wednesday Good
PM2.5

Snow Depth

Station Depth Elevation
No new snow has been reported.

Earthquake Activity

City Distance Mag. Time & Date
Jones, Oklahoma 75 miles 3.0 12:10 PM CDT
2014-10-25
Langston, Oklahoma 74 miles 3.0 7:36 AM CDT
2014-10-25
Pawnee, Oklahoma 64 miles 2.6 7:24 PM CDT
2014-10-24
Medford, Oklahoma 118 miles 2.6 12:44 PM CDT
2014-10-24
Minimum magnitude displayed is 2.5.

Coastal Water Temperatures

Place Temperature
No Stations Reporting

Nearby Weather Stations